Terminal Aerodrome Forecast
Issued by NWS

Home | Current Version | Previous Version | Text Only | Print | Product List | Glossary On
Versions: 1 2 3 4 5 6 7 8 9 10 11 12 13 14 15 16 17 18 19 20 21 22 23 24 25 26
000
FTUS42 KMHX 031757 AAG
TAFPGV
TAF AMD
KPGV 031757Z 0318/0418 23010G15KT P6SM OVC020
     FM032000 24011KT P6SM SCT040
     FM032300 24010KT P6SM VCTS OVC040CB
     FM040600 VRB04KT 2SM BR OVC006
     FM041400 27006KT P6SM BKN015
     FM041600 28007KT P6SM BKN050
      AMD LTD TO CLD VIS AND WIND=

USA.gov is the U.S. government's official web portal to all federal, state and local government web resources and services.